Time;durP1;ratioP1;P1;durP2;ratioP2;P2;SDS_P1;SDS_P2;PMS_P1;PMS_P2;Temp;Humidity;BMP_temperature;BMP_pressure;BME280_temperature;BME280_humidity;BME280_pressure;Samples;Min_cycle;Max_cycle;Signal;HPM_P1;HPM_P2
2022/01/06 00:01:16;;;;;;;27.42;13.40;;;;;;;1.14;100.00;94162.50;5076082;28;20055;-57
2022/01/06 00:03:44;;;;;;;33.22;15.68;;;;;;;1.10;100.00;94161.31;5067297;28;20036;-57
2022/01/06 00:06:11;;;;;;;23.98;11.88;;;;;;;1.09;100.00;94150.25;5064433;28;20438;-57
2022/01/06 00:08:39;;;;;;;25.02;12.18;;;;;;;1.06;100.00;94150.63;5068357;28;20124;-56
2022/01/06 00:11:09;;;;;;;21.48;11.60;;;;;;;1.05;100.00;94153.38;5070000;28;20052;-57
2022/01/06 00:13:49;;;;;;;18.40;9.70;;;;;;;1.08;100.00;94147.88;5066425;28;20044;-57
2022/01/06 00:24:23;;;;;;;12.27;6.90;;;;;;;0.91;100.00;94153.28;5064004;28;20044;-56
2022/01/06 00:26:51;;;;;;;14.07;8.25;;;;;;;0.75;100.00;94161.25;5069640;28;20073;-57
2022/01/06 00:29:19;;;;;;;24.95;12.35;;;;;;;0.74;100.00;94157.13;5069673;28;20045;-55
2022/01/06 00:31:47;;;;;;;28.05;12.98;;;;;;;0.84;100.00;94157.56;5068589;28;20043;-56
2022/01/06 00:34:14;;;;;;;30.55;13.20;;;;;;;0.75;100.00;94148.44;5071742;28;20045;-55
2022/01/06 00:36:42;;;;;;;24.10;11.25;;;;;;;0.66;100.00;94147.00;5069427;28;20044;-57
2022/01/06 00:39:10;;;;;;;23.58;11.60;;;;;;;0.60;100.00;94140.06;5070312;28;20052;-56
2022/01/06 00:41:38;;;;;;;19.85;11.70;;;;;;;0.61;100.00;94150.13;5074686;28;20068;-56
2022/01/06 00:44:07;;;;;;;19.25;9.15;;;;;;;0.63;100.00;94150.75;5065692;28;20076;-56
2022/01/06 00:46:34;;;;;;;18.00;9.13;;;;;;;0.60;100.00;94158.00;5069515;28;20056;-57
2022/01/06 00:49:01;;;;;;;22.17;9.90;;;;;;;0.43;100.00;94144.66;5066932;28;20051;-56
2022/01/06 00:51:28;;;;;;;16.25;9.07;;;;;;;0.43;100.00;94150.56;5068851;28;20060;-57
2022/01/06 00:53:54;;;;;;;19.40;8.35;;;;;;;0.38;100.00;94152.91;5066100;28;20118;-57
2022/01/06 00:56:21;;;;;;;13.70;6.97;;;;;;;0.39;100.00;94149.34;5066581;28;20090;-57
2022/01/06 00:58:48;;;;;;;16.55;6.70;;;;;;;0.49;100.00;94164.44;5066260;28;20111;-56
2022/01/06 01:01:15;;;;;;;15.73;6.35;;;;;;;0.50;100.00;94146.28;5067697;28;20044;-57
2022/01/06 01:03:43;;;;;;;10.07;4.75;;;;;;;0.53;100.00;94166.44;5066540;28;20068;-56
2022/01/06 01:06:10;;;;;;;11.10;6.65;;;;;;;0.53;100.00;94165.63;5075231;28;20132;-56
2022/01/06 01:08:38;;;;;;;12.88;5.68;;;;;;;0.51;100.00;94168.38;5070730;28;20046;-57
2022/01/06 01:11:06;;;;;;;9.13;4.00;;;;;;;0.48;100.00;94165.41;5065323;28;20049;-56
2022/01/06 01:13:37;;;;;;;10.23;5.00;;;;;;;0.42;100.00;94159.25;5072024;28;20047;-57
2022/01/06 01:16:20;;;;;;;9.25;4.28;;;;;;;0.41;100.00;94157.66;5069694;28;20505;-57
2022/01/06 01:18:49;;;;;;;10.48;6.15;;;;;;;0.42;100.00;94164.38;5068689;28;20055;-56
2022/01/06 01:21:17;;;;;;;12.70;5.95;;;;;;;0.51;100.00;94165.81;5066578;28;20049;-57
2022/01/06 01:23:44;;;;;;;9.02;3.72;;;;;;;0.53;100.00;94158.75;5067932;28;20050;-57
2022/01/06 01:26:11;;;;;;;8.00;4.15;;;;;;;0.51;100.00;94162.47;5071234;28;20379;-55
2022/01/06 01:28:44;;;;;;;8.48;4.25;;;;;;;0.51;100.00;94168.38;5072271;28;20047;-57
2022/01/06 01:33:46;;;;;;;8.68;4.60;;;;;;;0.51;100.00;94160.69;5069601;28;20045;-57
2022/01/06 01:36:13;;;;;;;7.10;4.03;;;;;;;0.60;100.00;94163.13;5067610;28;20547;-57
2022/01/06 01:38:41;;;;;;;14.73;7.93;;;;;;;0.31;100.00;94163.09;5075398;28;20045;-51
2022/01/06 01:41:09;;;;;;;16.92;9.80;;;;;;;0.48;100.00;94155.94;5073917;28;20048;-57
2022/01/06 01:43:37;;;;;;;15.05;8.18;;;;;;;0.46;100.00;94160.44;5068998;28;20497;-54
2022/01/06 01:46:14;;;;;;;18.45;8.48;;;;;;;0.47;100.00;94151.81;5071810;28;20097;-57
2022/01/06 01:48:48;;;;;;;14.85;8.10;;;;;;;0.42;100.00;94138.75;5069744;28;20066;-56
2022/01/06 01:51:15;;;;;;;13.53;7.60;;;;;;;0.47;100.00;94146.69;5069593;28;20045;-56
2022/01/06 01:53:42;;;;;;;15.18;8.02;;;;;;;0.41;100.00;94137.16;5076383;28;20051;-56
2022/01/06 01:56:11;;;;;;;11.93;6.65;;;;;;;0.34;100.00;94146.56;5072971;28;20028;-56
2022/01/06 01:58:39;;;;;;;26.70;14.00;;;;;;;0.25;100.00;94132.28;5074216;28;20075;-56
2022/01/06 02:01:06;;;;;;;13.20;4.47;;;;;;;0.11;100.00;94147.53;5071796;28;20536;-56
2022/01/06 02:03:33;;;;;;;20.73;10.88;;;;;;;0.27;100.00;94155.94;5071277;28;20417;-55
2022/01/06 02:06:00;;;;;;;21.38;12.13;;;;;;;0.24;100.00;94140.97;5073634;28;20041;-56
2022/01/06 02:08:27;;;;;;;22.52;12.88;;;;;;;0.30;100.00;94146.13;5071609;28;20041;-57
2022/01/06 02:10:54;;;;;;;33.15;15.50;;;;;;;0.26;100.00;94133.88;5073268;28;20036;-57
2022/01/06 02:13:27;;;;;;;27.45;13.73;;;;;;;0.21;100.00;94151.56;5072631;28;20096;-56
2022/01/06 02:15:56;;;;;;;34.00;16.05;;;;;;;0.21;100.00;94154.13;5072591;28;20051;-56
2022/01/06 02:18:23;;;;;;;45.10;16.60;;;;;;;0.24;100.00;94157.13;5073522;28;20097;-55
2022/01/06 02:20:50;;;;;;;40.75;16.40;;;;;;;0.23;100.00;94159.84;5074194;28;20047;-56
2022/01/06 02:23:17;;;;;;;32.75;14.23;;;;;;;0.13;100.00;94153.28;5068731;28;20037;-56
2022/01/06 02:25:44;;;;;;;28.90;13.77;;;;;;;0.04;100.00;94154.38;5073224;28;20040;-55
2022/01/06 02:28:11;;;;;;;23.77;11.18;;;;;;;-0.09;100.00;94156.78;5077322;28;20072;-57
2022/01/06 02:30:38;;;;;;;34.03;12.73;;;;;;;-0.23;100.00;94161.00;5071772;28;20047;-55
2022/01/06 02:33:06;;;;;;;23.75;12.43;;;;;;;-0.28;100.00;94158.97;5077864;28;20032;-55
2022/01/06 02:35:34;;;;;;;23.50;10.98;;;;;;;-0.31;100.00;94164.44;5074310;28;20046;-54
2022/01/06 02:38:00;;;;;;;26.48;11.95;;;;;;;-0.30;100.00;94148.13;5075296;28;20046;-56
2022/01/06 02:40:27;;;;;;;24.27;11.40;;;;;;;-0.26;100.00;94146.78;5073117;28;20549;-56
2022/01/06 02:42:56;;;;;;;23.58;10.63;;;;;;;-0.31;100.00;94159.31;5073321;28;20051;-56
2022/01/06 02:45:27;;;;;;;20.00;11.20;;;;;;;-0.42;100.00;94164.91;5074542;28;20044;-54
2022/01/06 02:47:56;;;;;;;20.45;10.80;;;;;;;-0.43;100.00;94150.53;5072308;28;20040;-56
2022/01/06 02:50:24;;;;;;;29.15;11.65;;;;;;;-0.35;100.00;94150.41;5071601;28;20032;-56
2022/01/06 02:52:51;;;;;;;20.02;9.73;;;;;;;-0.40;100.00;94160.41;5077925;28;20091;-55
2022/01/06 02:55:18;;;;;;;27.13;11.73;;;;;;;-0.37;100.00;94165.16;5075980;28;20047;-56
2022/01/06 02:57:46;;;;;;;24.60;11.23;;;;;;;-0.36;100.00;94166.75;5073863;28;20044;-54
2022/01/06 03:00:15;;;;;;;21.88;10.43;;;;;;;-0.30;100.00;94158.34;5071488;28;20055;-56
2022/01/06 03:02:45;;;;;;;22.25;11.10;;;;;;;-0.25;100.00;94157.81;5073979;28;20067;-56
2022/01/06 03:05:14;;;;;;;23.23;10.55;;;;;;;-0.24;100.00;94155.06;5072362;28;20143;-54
2022/01/06 03:07:41;;;;;;;18.55;8.63;;;;;;;-0.25;100.00;94158.59;5067572;28;20468;-54
2022/01/06 03:10:12;;;;;;;20.90;10.07;;;;;;;-0.28;100.00;94158.97;5070187;28;20407;-55
2022/01/06 03:12:41;;;;;;;13.70;8.57;;;;;;;-0.25;100.00;94163.72;5073107;28;20059;-56
2022/01/06 03:15:10;;;;;;;16.67;7.57;;;;;;;-0.23;100.00;94166.91;5072530;28;20441;-55
2022/01/06 03:17:39;;;;;;;15.13;8.80;;;;;;;-0.11;100.00;94179.22;5071747;28;20045;-56
2022/01/06 03:20:09;;;;;;;19.38;9.60;;;;;;;-0.10;100.00;94180.81;5070356;28;20041;-56
2022/01/06 03:22:37;;;;;;;18.88;12.40;;;;;;;-0.01;100.00;94174.59;5073996;28;20090;-54
2022/01/06 03:25:06;;;;;;;25.92;10.82;;;;;;;-0.10;100.00;94176.47;5077305;28;20040;-55
2022/01/06 03:27:33;;;;;;;22.15;11.90;;;;;;;-0.31;100.00;94164.44;5070023;28;20049;-56
2022/01/06 03:30:01;;;;;;;29.40;15.75;;;;;;;-0.24;100.00;94155.06;5072652;28;20070;-54
2022/01/06 03:32:29;;;;;;;32.88;15.70;;;;;;;-0.31;100.00;94164.44;5069150;28;20105;-54
2022/01/06 03:34:56;;;;;;;43.80;18.40;;;;;;;-0.44;100.00;94170.19;5068594;28;20052;-55
2022/01/06 03:37:23;;;;;;;34.85;16.00;;;;;;;-0.44;100.00;94184.75;5075302;28;20090;-55
2022/01/06 03:39:50;;;;;;;36.70;18.27;;;;;;;-0.55;100.00;94190.34;5074513;28;20086;-55
2022/01/06 03:42:16;;;;;;;24.20;11.13;;;;;;;-0.54;100.00;94174.00;5072631;28;20497;-55
2022/01/06 03:44:43;;;;;;;19.85;9.48;;;;;;;-0.57;100.00;94179.50;5073359;28;20050;-55
2022/01/06 03:47:11;;;;;;;21.67;9.05;;;;;;;-0.65;100.00;94196.53;5071017;28;20510;-55
2022/01/06 03:49:38;;;;;;;18.20;8.73;;;;;;;-0.68;100.00;94189.19;5070319;28;20567;-55
2022/01/06 03:52:05;;;;;;;23.23;11.40;;;;;;;-0.70;100.00;94186.03;5068527;28;20043;-54
2022/01/06 03:54:32;;;;;;;19.45;9.32;;;;;;;-0.71;100.00;94184.41;5074048;28;20114;-56
2022/01/06 03:56:59;;;;;;;15.10;8.25;;;;;;;-0.78;100.00;94204.00;5072130;28;20548;-55
2022/01/06 03:59:26;;;;;;;21.60;10.88;;;;;;;-0.76;100.00;94191.81;5072462;28;20426;-56
2022/01/06 04:01:53;;;;;;;20.08;9.80;;;;;;;-0.68;100.00;94194.31;5069099;28;20040;-55
2022/01/06 04:04:20;;;;;;;18.70;7.65;;;;;;;-0.66;100.00;94169.34;5066737;28;20047;-55
2022/01/06 04:06:47;;;;;;;20.05;8.95;;;;;;;-0.62;100.00;94188.47;5068677;28;20036;-55
2022/01/06 04:09:14;;;;;;;18.30;7.97;;;;;;;-0.67;100.00;94184.84;5069567;28;20409;-55
2022/01/06 04:11:41;;;;;;;19.40;10.40;;;;;;;-0.64;100.00;94184.50;5068212;28;20056;-55
2022/01/06 04:14:08;;;;;;;20.58;10.05;;;;;;;-0.69;100.00;94197.81;5072228;28;20127;-54
2022/01/06 04:16:38;;;;;;;20.40;9.18;;;;;;;-0.66;100.00;94182.13;5068939;28;20040;-55
2022/01/06 04:19:06;;;;;;;20.60;8.65;;;;;;;-0.68;100.00;94184.06;5071576;28;20090;-54
2022/01/06 04:21:34;;;;;;;31.35;9.80;;;;;;;-0.63;100.00;94192.00;5071702;28;20040;-55
2022/01/06 04:24:00;;;;;;;19.65;10.25;;;;;;;-0.57;100.00;94192.28;5068151;28;20049;-55
2022/01/06 04:26:27;;;;;;;30.75;15.50;;;;;;;-0.59;100.00;94193.25;5069942;28;20045;-55
2022/01/06 04:28:54;;;;;;;40.05;17.55;;;;;;;-0.61;100.00;94197.75;5070793;28;20040;-55
2022/01/06 04:31:21;;;;;;;21.40;11.82;;;;;;;-0.55;100.00;94203.91;5068396;28;20028;-53
2022/01/06 04:33:48;;;;;;;27.77;13.82;;;;;;;-0.51;100.00;94204.34;5071545;28;20054;-56
2022/01/06 04:36:15;;;;;;;24.67;12.35;;;;;;;-0.54;100.00;94199.56;5073103;28;20044;-54
2022/01/06 04:38:42;;;;;;;28.83;13.32;;;;;;;-0.57;100.00;94199.94;5067150;28;20551;-55
2022/01/06 04:41:09;;;;;;;24.17;11.10;;;;;;;-0.55;100.00;94213.34;5065035;28;20044;-55
2022/01/06 04:43:36;;;;;;;20.65;9.13;;;;;;;-0.70;100.00;94216.72;5071066;28;20418;-53
2022/01/06 04:46:03;;;;;;;25.65;12.65;;;;;;;-0.70;100.00;94206.47;5064700;28;20135;-53
2022/01/06 04:48:30;;;;;;;21.63;9.07;;;;;;;-0.84;100.00;94209.81;5070552;28;20036;-54
2022/01/06 04:50:56;;;;;;;16.63;8.48;;;;;;;-0.78;100.00;94209.09;5073530;28;20036;-55
2022/01/06 04:53:23;;;;;;;24.75;10.98;;;;;;;-0.67;100.00;94211.22;5067885;28;20043;-56
2022/01/06 04:55:51;;;;;;;18.67;11.25;;;;;;;-0.65;100.00;94211.03;5071412;28;20040;-56
2022/01/06 04:58:18;;;;;;;18.80;8.35;;;;;;;-0.59;100.00;94223.94;5068913;28;20045;-53
2022/01/06 05:00:45;;;;;;;25.52;12.73;;;;;;;-0.59;100.00;94211.16;5069726;28;20043;-53
2022/01/06 05:03:12;;;;;;;18.40;10.63;;;;;;;-0.55;100.00;94223.59;5070093;28;20087;-55
2022/01/06 05:05:39;;;;;;;27.80;9.57;;;;;;;-0.51;100.00;94219.69;5069427;28;20040;-53
2022/01/06 05:08:06;;;;;;;30.15;14.27;;;;;;;-0.47;100.00;94215.81;5066231;28;20382;-53
2022/01/06 05:10:33;;;;;;;29.95;13.20;;;;;;;-0.51;100.00;94222.25;5067735;28;20162;-55
2022/01/06 05:12:59;;;;;;;43.05;19.80;;;;;;;-0.54;100.00;94209.81;5070853;28;20060;-56
2022/01/06 05:15:26;;;;;;;43.22;19.38;;;;;;;-0.63;100.00;94227.00;5072420;28;20082;-54
2022/01/06 05:17:57;;;;;;;25.42;11.63;;;;;;;-0.60;100.00;94222.34;5072690;28;20036;-54
2022/01/06 05:20:25;;;;;;;26.33;11.95;;;;;;;-0.64;100.00;94226.22;5073556;28;20044;-55
2022/01/06 05:22:56;;;;;;;23.42;13.02;;;;;;;-0.62;100.00;94228.59;5076265;28;20055;-54
2022/01/06 05:25:28;;;;;;;58.92;25.60;;;;;;;-0.70;100.00;94221.00;5070808;28;20163;-54
2022/01/06 05:27:55;;;;;;;58.20;27.05;;;;;;;-0.62;100.00;94218.38;5079115;28;20047;-55
2022/01/06 05:30:23;;;;;;;50.15;24.98;;;;;;;-0.63;100.00;94212.47;5071541;28;20061;-53
2022/01/06 05:32:50;;;;;;;49.60;25.77;;;;;;;-0.62;100.00;94208.94;5073209;28;20051;-55
2022/01/06 05:35:18;;;;;;;55.50;25.83;;;;;;;-0.57;100.00;94217.84;5072226;28;20048;-52
2022/01/06 05:37:45;;;;;;;48.42;21.20;;;;;;;-0.54;100.00;94213.19;5069419;28;20449;-55
2022/01/06 05:40:13;;;;;;;40.40;23.80;;;;;;;-0.47;100.00;94226.03;5072242;28;20051;-54
2022/01/06 05:42:41;;;;;;;33.08;17.48;;;;;;;-0.36;100.00;94217.13;5075373;28;20403;-54
2022/01/06 05:45:12;;;;;;;29.00;15.15;;;;;;;-0.39;100.00;94213.94;5072574;28;20115;-54
2022/01/06 05:47:39;;;;;;;20.15;10.45;;;;;;;-0.64;100.00;94226.22;5068772;28;20128;-53
2022/01/06 05:50:06;;;;;;;28.30;15.35;;;;;;;-0.68;100.00;94219.88;5067992;28;20039;-54
2022/01/06 05:52:33;;;;;;;43.33;22.20;;;;;;;-0.67;100.00;94226.56;5078156;28;20050;-53
2022/01/06 05:55:00;;;;;;;44.97;23.95;;;;;;;-0.67;100.00;94226.56;5073292;28;20040;-52
2022/01/06 05:57:27;;;;;;;39.75;20.65;;;;;;;-0.64;100.00;94226.22;5072265;28;20093;-53
2022/01/06 05:59:54;;;;;;;39.63;19.42;;;;;;;-0.70;100.00;94221.81;5076138;28;20048;-56
2022/01/06 06:02:21;;;;;;;53.80;24.15;;;;;;;-0.65;100.00;94245.13;5075968;28;20043;-54
2022/01/06 06:04:48;;;;;;;42.72;21.13;;;;;;;-0.68;100.00;94239.56;5071763;28;20068;-54
2022/01/06 06:07:17;;;;;;;34.78;19.08;;;;;;;-0.73;100.00;94241.84;5072240;28;20040;-55
2022/01/06 06:09:44;;;;;;;37.55;19.88;;;;;;;-0.72;100.00;94254.44;5068150;28;20052;-55
2022/01/06 06:12:11;;;;;;;46.05;21.95;;;;;;;-0.70;100.00;94242.28;5073286;28;20059;-53
2022/01/06 06:14:38;;;;;;;43.15;22.17;;;;;;;-0.65;100.00;94247.66;5073340;28;20040;-55
2022/01/06 06:17:06;;;;;;;43.72;21.83;;;;;;;-0.67;100.00;94247.03;5070684;28;20098;-54
2022/01/06 06:19:32;;;;;;;70.32;34.35;;;;;;;-0.67;100.00;94241.91;5075907;28;20132;-53
2022/01/06 06:21:59;;;;;;;57.10;29.05;;;;;;;-0.69;100.00;94243.84;5068981;28;20454;-56
2022/01/06 06:24:26;;;;;;;52.17;24.92;;;;;;;-0.80;100.00;94242.53;5072616;28;20136;-49
2022/01/06 06:26:53;;;;;;;48.25;26.40;;;;;;;-0.76;100.00;94253.19;5069737;28;20418;-55
2022/01/06 06:29:20;;;;;;;46.35;24.52;;;;;;;-0.70;100.00;94237.16;5068759;28;20414;-54
2022/01/06 06:31:47;;;;;;;47.72;23.98;;;;;;;-0.66;100.00;94251.19;5071659;28;20036;-54
2022/01/06 06:34:14;;;;;;;80.45;36.53;;;;;;;-0.73;100.00;94263.09;5072362;28;20136;-55
2022/01/06 06:36:41;;;;;;;190.50;64.13;;;;;;;-0.66;100.00;94251.19;5072911;28;20029;-54
2022/01/06 06:39:08;;;;;;;103.13;44.60;;;;;;;-0.68;100.00;94239.56;5072866;28;20040;-54
2022/01/06 06:41:35;;;;;;;67.68;32.45;;;;;;;-0.54;100.00;94255.84;5071733;28;20040;-55
2022/01/06 06:44:02;;;;;;;51.97;25.90;;;;;;;-0.48;100.00;94244.94;5072055;28;20037;-54
2022/01/06 06:46:29;;;;;;;43.90;24.60;;;;;;;-0.46;100.00;94256.56;5064781;28;20126;-55
2022/01/06 06:48:56;;;;;;;55.20;29.33;;;;;;;-0.39;100.00;94259.22;5069288;28;20116;-53
2022/01/06 06:51:23;;;;;;;45.72;24.95;;;;;;;-0.38;100.00;94250.56;5068314;28;20033;-52
2022/01/06 06:53:49;;;;;;;35.72;18.60;;;;;;;-0.36;100.00;94268.28;5069327;28;20043;-55
2022/01/06 06:56:16;;;;;;;46.30;23.88;;;;;;;-0.35;100.00;94265.56;5072873;28;20420;-54
2022/01/06 06:58:43;;;;;;;40.72;22.40;;;;;;;-0.21;100.00;94221.25;5070570;28;20074;-52
2022/01/06 07:01:10;;;;;;;91.05;41.90;;;;;;;-0.12;100.00;94244.19;5071333;28;20048;-53
2022/01/06 07:03:38;;;;;;;31.98;15.45;;;;;;;0.04;100.00;94268.78;5068811;28;20147;-51
2022/01/06 07:06:04;;;;;;;34.72;19.38;;;;;;;0.24;100.00;94256.22;5064862;28;20072;-53
2022/01/06 07:08:31;;;;;;;35.45;20.50;;;;;;;0.31;100.00;94269.91;5067735;28;20048;-55
2022/01/06 07:10:58;;;;;;;33.13;17.63;;;;;;;0.31;100.00;94285.25;5069572;28;20837;-54
2022/01/06 07:13:25;;;;;;;37.20;18.17;;;;;;;0.43;100.00;94278.66;5071140;28;20069;-56
2022/01/06 07:15:52;;;;;;;29.23;16.38;;;;;;;0.53;100.00;94268.94;5069501;28;20408;-53
2022/01/06 07:18:20;;;;;;;42.85;21.40;;;;;;;0.65;100.00;94286.38;5067882;28;20506;-55
2022/01/06 07:20:47;;;;;;;31.02;18.50;;;;;;;0.69;100.00;94282.50;5074479;28;20028;-54
2022/01/06 07:23:14;;;;;;;36.55;18.77;;;;;;;0.84;100.00;94296.03;5067636;28;20415;-55
2022/01/06 07:25:41;;;;;;;35.00;18.65;;;;;;;0.89;100.00;94293.72;5065197;28;20049;-54
2022/01/06 07:28:08;;;;;;;51.95;23.45;;;;;;;0.93;100.00;94289.78;5068015;28;20051;-53
2022/01/06 07:30:35;;;;;;;59.20;23.65;;;;;;;1.01;100.00;94301.72;5071100;28;20044;-54
2022/01/06 07:33:02;;;;;;;65.03;20.85;;;;;;;1.10;100.00;94279.28;5075855;28;20457;-54
2022/01/06 07:35:29;;;;;;;49.55;19.48;;;;;;;1.17;100.00;94277.56;5070436;28;20047;-54
2022/01/06 07:37:56;;;;;;;28.45;12.73;;;;;;;1.17;100.00;94310.09;5068597;28;20103;-55
2022/01/06 07:40:23;;;;;;;71.78;30.25;;;;;;;1.40;100.00;94284.22;5067391;28;20048;-55
2022/01/06 07:42:50;;;;;;;55.75;26.27;;;;;;;1.47;100.00;94313.31;5070756;28;20123;-57
2022/01/06 07:45:18;;;;;;;70.32;33.67;;;;;;;1.56;100.00;94309.59;5070436;28;20513;-54
2022/01/06 07:47:57;;;;;;;114.00;35.53;;;;;;;1.78;100.00;94301.84;5070181;28;20045;-54
2022/01/06 07:50:29;;;;;;;42.40;21.00;;;;;;;1.98;100.00;94292.47;5076159;28;20131;-54
2022/01/06 07:52:57;;;;;;;44.38;20.52;;;;;;;2.22;100.00;94287.84;5069645;28;20048;-56
2022/01/06 07:55:24;;;;;;;29.38;15.95;;;;;;;2.42;100.00;94291.25;5067101;28;20063;-53
2022/01/06 07:57:53;;;;;;;23.70;13.68;;;;;;;2.57;100.00;94300.59;5065729;28;20032;-55
2022/01/06 08:00:21;;;;;;;27.63;15.43;;;;;;;2.76;100.00;94304.97;5072747;28;20047;-54
2022/01/06 08:02:48;;;;;;;46.85;22.60;;;;;;;2.95;100.00;94302.63;5068949;28;20051;-55
2022/01/06 08:05:16;;;;;;;39.97;21.83;;;;;;;3.10;100.00;94305.81;5073458;28;20055;-55
2022/01/06 08:07:43;;;;;;;38.47;20.10;;;;;;;3.29;100.00;94311.16;5069312;28;20426;-58
2022/01/06 08:10:10;;;;;;;41.78;20.73;;;;;;;3.44;100.00;94311.78;5068734;28;20055;-56
2022/01/06 08:12:37;;;;;;;34.50;17.92;;;;;;;3.57;100.00;94306.59;5073372;28;20048;-55
2022/01/06 08:15:05;;;;;;;37.95;16.23;;;;;;;3.62;100.00;94306.78;5067105;28;20430;-55
2022/01/06 08:17:33;;;;;;;24.40;11.63;;;;;;;3.78;100.00;94323.63;5076159;28;20059;-56
2022/01/06 08:19:59;;;;;;;69.88;35.08;;;;;;;3.78;100.00;94333.91;5066691;28;20796;-56
2022/01/06 08:22:26;;;;;;;50.38;23.58;;;;;;;3.95;100.00;94305.94;5069317;28;20465;-55
2022/01/06 08:24:53;;;;;;;27.45;15.10;;;;;;;4.07;100.00;94321.56;5068239;28;20052;-55
2022/01/06 08:27:23;;;;;;;58.95;27.20;;;;;;;4.19;100.00;94329.47;5069425;28;20429;-55
2022/01/06 08:29:54;;;;;;;49.40;22.42;;;;;;;4.39;100.00;94325.03;5071650;28;20144;-55
2022/01/06 08:32:21;;;;;;;38.95;19.67;;;;;;;4.46;100.00;94313.91;5070642;28;20458;-55
2022/01/06 08:34:47;;;;;;;42.22;19.92;;;;;;;4.65;100.00;94320.75;5073854;28;20041;-56
2022/01/06 08:37:15;;;;;;;40.53;19.95;;;;;;;4.88;100.00;94327.16;5070773;28;20044;-55
2022/01/06 08:39:42;;;;;;;27.30;15.52;;;;;;;5.06;100.00;94332.44;5071346;28;20105;-56
2022/01/06 08:42:09;;;;;;;29.60;13.90;;;;;;;5.07;100.00;94340.97;5072143;28;20059;-55
2022/01/06 08:44:39;;;;;;;27.05;16.77;;;;;;;5.18;100.00;94345.44;5071790;28;20463;-55
2022/01/06 08:47:06;;;;;;;35.67;19.77;;;;;;;5.35;100.00;94327.69;5069623;28;20044;-56
2022/01/06 08:49:34;;;;;;;35.40;15.60;;;;;;;5.57;100.00;94324.72;5067819;28;20047;-55
2022/01/06 08:52:02;;;;;;;28.92;18.10;;;;;;;5.64;98.84;94320.28;5070510;28;20048;-57
2022/01/06 08:54:29;;;;;;;26.98;14.18;;;;;;;5.73;99.54;94329.34;5080041;28;20044;-57
2022/01/06 08:56:56;;;;;;;30.77;14.98;;;;;;;5.93;100.00;94324.00;5081203;28;20031;-57
2022/01/06 08:59:23;;;;;;;22.42;11.23;;;;;;;6.14;99.77;94320.25;5079798;28;20066;-57
2022/01/06 09:01:50;;;;;;;18.50;10.05;;;;;;;6.22;98.06;94304.41;5078218;28;20481;-56
2022/01/06 09:04:20;;;;;;;21.75;13.07;;;;;;;6.29;98.55;94302.53;5078944;28;20225;-57
2022/01/06 09:06:48;;;;;;;33.95;14.63;;;;;;;6.45;99.42;94305.56;5077280;28;20032;-57
2022/01/06 09:09:16;;;;;;;26.20;12.40;;;;;;;6.65;98.71;94316.44;5075825;28;20583;-57
2022/01/06 09:11:44;;;;;;;23.88;12.23;;;;;;;6.99;97.10;94316.81;5079272;28;20085;-57
2022/01/06 09:14:11;;;;;;;22.70;11.52;;;;;;;7.22;94.01;94317.84;5075772;28;20456;-57
2022/01/06 09:16:39;;;;;;;28.98;13.30;;;;;;;7.56;93.21;94318.13;5075026;28;20036;-54
2022/01/06 09:19:06;;;;;;;25.33;12.73;;;;;;;7.71;94.31;94313.31;5071427;28;20130;-57
2022/01/06 09:21:33;;;;;;;18.17;11.05;;;;;;;7.87;93.41;94324.00;5076472;28;20028;-57
2022/01/06 09:24:01;;;;;;;30.17;12.80;;;;;;;7.97;91.22;94316.47;5075678;28;20048;-58
2022/01/06 09:26:28;;;;;;;38.92;20.58;;;;;;;8.20;91.73;94303.47;5071954;28;20051;-57
2022/01/06 09:28:55;;;;;;;31.30;15.48;;;;;;;8.44;91.80;94306.03;5075193;28;20149;-57
2022/01/06 09:31:22;;;;;;;19.40;10.95;;;;;;;8.52;91.63;94290.09;5068651;28;20041;-57
2022/01/06 09:33:49;;;;;;;17.48;9.52;;;;;;;8.49;90.91;94272.38;5074142;28;20043;-58
2022/01/06 09:36:16;;;;;;;19.58;8.90;;;;;;;8.65;91.19;94301.25;5070278;28;20048;-57
2022/01/06 09:38:45;;;;;;;19.00;10.63;;;;;;;8.58;90.47;94315.13;5070211;28;20044;-57
2022/01/06 09:41:14;;;;;;;22.55;11.32;;;;;;;8.46;91.51;94293.59;5070228;28;20047;-57
2022/01/06 09:43:41;;;;;;;24.02;11.70;;;;;;;8.51;92.19;94265.16;5067960;28;20118;-58
2022/01/06 09:46:13;;;;;;;27.48;12.93;;;;;;;8.61;94.38;94278.34;5059986;28;20053;-58
2022/01/06 09:48:41;;;;;;;23.10;13.60;;;;;;;8.70;93.02;94288.34;5064151;28;20730;-57
2022/01/06 09:51:10;;;;;;;24.30;13.45;;;;;;;8.78;93.46;94286.16;5069420;28;20056;-57
2022/01/06 09:53:37;;;;;;;18.42;11.15;;;;;;;8.66;92.14;94298.41;5064299;28;20045;-57
2022/01/06 09:56:05;;;;;;;22.70;12.68;;;;;;;8.95;92.57;94291.41;5066053;28;20429;-58
2022/01/06 09:58:33;;;;;;;22.55;10.65;;;;;;;9.13;92.68;94261.06;5065749;28;20045;-58
2022/01/06 10:01:00;;;;;;;17.52;9.32;;;;;;;9.67;91.01;94271.75;5065718;28;20582;-58
2022/01/06 10:03:36;;;;;;;14.77;7.78;;;;;;;10.11;90.24;94277.00;5068031;28;20032;-58
2022/01/06 10:06:17;;;;;;;21.02;10.50;;;;;;;10.50;86.75;94278.81;5064987;28;20075;-58
2022/01/06 10:09:03;;;;;;;17.60;10.27;;;;;;;10.69;84.46;94281.88;5064096;28;20044;-59
2022/01/06 10:11:35;;;;;;;20.15;9.48;;;;;;;10.97;83.73;94282.69;5061575;28;20051;-58
2022/01/06 10:14:10;;;;;;;22.08;15.82;;;;;;;11.11;83.04;94283.84;5064725;28;20037;-58
2022/01/06 10:16:45;;;;;;;16.05;8.05;;;;;;;11.45;82.45;94273.16;5063146;28;20063;-58
2022/01/06 10:19:14;;;;;;;17.27;10.70;;;;;;;11.85;82.40;94271.88;5063314;28;20043;-58
2022/01/06 10:21:44;;;;;;;17.33;9.57;;;;;;;12.07;82.61;94284.03;5063389;28;20471;-58
2022/01/06 10:24:19;;;;;;;19.77;9.82;;;;;;;12.37;78.96;94278.97;5066963;28;20068;-57
2022/01/06 10:27:04;;;;;;;16.58;9.63;;;;;;;12.76;77.09;94268.09;5063500;28;20063;-58
2022/01/06 10:29:44;;;;;;;18.52;10.90;;;;;;;12.91;75.16;94271.78;5065632;28;20052;-58
2022/01/06 10:32:16;;;;;;;20.45;11.65;;;;;;;12.98;74.41;94273.13;5067249;28;20789;-58
2022/01/06 10:34:45;;;;;;;16.15;9.68;;;;;;;12.79;71.03;94272.81;5072699;28;20045;-58
2022/01/06 10:37:26;;;;;;;17.58;9.48;;;;;;;12.88;68.86;94272.31;5066153;28;20049;-58
2022/01/06 10:39:57;;;;;;;19.05;11.13;;;;;;;13.06;70.40;94261.38;5062851;28;20041;-58
2022/01/06 10:42:30;;;;;;;22.58;9.43;;;;;;;13.30;70.35;94261.63;5061441;28;20036;-58
2022/01/06 10:45:03;;;;;;;24.42;12.13;;;;;;;13.62;69.06;94270.31;5062907;28;20054;-58
2022/01/06 10:47:32;;;;;;;20.30;12.27;;;;;;;13.47;69.25;94266.66;5067734;28;20550;-58
2022/01/06 10:50:22;;;;;;;33.67;16.80;;;;;;;13.14;68.13;94271.31;5061865;28;20048;-58
2022/01/06 10:52:55;;;;;;;28.80;14.63;;;;;;;12.71;68.38;94257.66;5067507;28;20145;-56
2022/01/06 10:55:30;;;;;;;24.30;12.77;;;;;;;13.06;69.00;94252.75;5070150;28;20051;-57
2022/01/06 10:58:04;;;;;;;17.73;10.77;;;;;;;13.36;68.90;94250.16;5065657;28;20050;-56
2022/01/06 11:00:34;;;;;;;20.60;11.27;;;;;;;13.58;65.91;94255.13;5062843;28;20159;-57
2022/01/06 11:03:16;;;;;;;23.98;11.45;;;;;;;13.63;65.15;94262.19;5063105;28;20406;-56
2022/01/06 11:05:54;;;;;;;24.83;10.43;;;;;;;13.75;64.55;94259.28;5061311;28;20567;-57
2022/01/06 11:08:25;;;;;;;17.52;9.40;;;;;;;13.90;65.03;94250.63;5062130;28;20052;-57
2022/01/06 11:11:15;;;;;;;23.45;12.20;;;;;;;14.27;66.20;94250.25;5062460;28;20118;-58
2022/01/06 11:13:45;;;;;;;14.35;8.93;;;;;;;14.61;61.98;94265.34;5066235;28;20052;-57
2022/01/06 11:16:15;;;;;;;16.10;7.75;;;;;;;14.81;60.37;94255.81;5060266;28;20048;-57
2022/01/06 11:18:48;;;;;;;9.73;5.70;;;;;;;15.00;60.15;94241.00;5057590;28;20197;-57
2022/01/06 11:21:34;;;;;;;17.10;6.13;;;;;;;15.27;58.46;94252.88;5063417;28;20041;-57
2022/01/06 11:24:09;;;;;;;10.80;6.10;;;;;;;15.51;57.22;94244.31;5065330;28;20508;-57
2022/01/06 11:26:36;;;;;;;10.90;5.00;;;;;;;15.82;56.07;94252.69;5061924;28;20041;-57
2022/01/06 11:29:04;;;;;;;9.43;5.13;;;;;;;16.07;55.15;94251.66;5059623;28;20051;-57
2022/01/06 11:31:41;;;;;;;10.15;5.10;;;;;;;16.27;52.76;94245.41;5058518;28;20040;-57
2022/01/06 11:34:15;;;;;;;10.35;4.93;;;;;;;16.47;51.63;94244.38;5061774;28;20093;-57